VOZ613 YBBN-YBMK
Flight info
| Callsign | VOZ613 |
|---|---|
| Flight time | 1h 16m |
| Altitude | 38000 |
| Route | DCT BIXAD Q67 RUNLA Q493 EMSUP V308 WELKE DCT |
| Aircraft | B738/M-SDE3FGHIM3RWZ/LB1 |
Departure
| Time | 2026-04-14 07:07 |
|---|---|
| Airport | Brisbane International Airport (YBBN) |
Arrival
| Time | 2026-04-14 08:24 |
|---|---|
| Airport | Mackay Airport (YBMK) |
| Time | Latitude | Longitude | Altitude | Speed | Heading |
|---|---|---|---|---|---|
| 2026-04-14 06:46 | -27.38716 | 153.11993 | 20 ft | 0 kts | 335° |
| 2026-04-14 06:53 | -27.38732 | 153.12000 | 22 ft | 4 kts | 354° |
| 2026-04-14 06:53 | -27.38754 | 153.12009 | 20 ft | 4 kts | 316° |
| 2026-04-14 06:54 | -27.38761 | 153.12029 | 22 ft | 4 kts | 259° |
| 2026-04-14 06:54 | -27.38763 | 153.12056 | 20 ft | 4 kts | 308° |
| 2026-04-14 06:54 | -27.38781 | 153.12076 | 22 ft | 4 kts | 319° |
| 2026-04-14 06:54 | -27.38801 | 153.12096 | 24 ft | 4 kts | 319° |
| 2026-04-14 06:55 | -27.38807 | 153.12102 | 23 ft | 0 kts | 319° |
| 2026-04-14 06:58 | -27.38806 | 153.12101 | 23 ft | 1 kts | 319° |
| 2026-04-14 06:58 | -27.38793 | 153.12095 | 20 ft | 4 kts | 351° |
| 2026-04-14 06:58 | -27.38769 | 153.12119 | 20 ft | 6 kts | 77° |
| 2026-04-14 06:59 | -27.38774 | 153.12177 | 20 ft | 9 kts | 102° |
| 2026-04-14 06:59 | -27.38792 | 153.12255 | 20 ft | 11 kts | 102° |
| 2026-04-14 06:59 | -27.38753 | 153.12330 | 20 ft | 13 kts | 28° |
| 2026-04-14 06:59 | -27.38666 | 153.12380 | 20 ft | 15 kts | 27° |
| 2026-04-14 07:00 | -27.38577 | 153.12431 | 20 ft | 14 kts | 27° |
| 2026-04-14 07:00 | -27.38493 | 153.12480 | 20 ft | 13 kts | 27° |
| 2026-04-14 07:00 | -27.38411 | 153.12525 | 21 ft | 13 kts | 27° |
| 2026-04-14 07:00 | -27.38333 | 153.12571 | 20 ft | 13 kts | 28° |
| 2026-04-14 07:01 | -27.38253 | 153.12616 | 21 ft | 13 kts | 26° |
| 2026-04-14 07:01 | -27.38166 | 153.12664 | 20 ft | 15 kts | 27° |
| 2026-04-14 07:01 | -27.38078 | 153.12716 | 21 ft | 14 kts | 25° |
| 2026-04-14 07:01 | -27.37986 | 153.12761 | 20 ft | 15 kts | 8° |
| 2026-04-14 07:02 | -27.37915 | 153.12692 | 22 ft | 15 kts | 297° |
| 2026-04-14 07:02 | -27.37864 | 153.12579 | 20 ft | 17 kts | 297° |
| 2026-04-14 07:02 | -27.37808 | 153.12455 | 20 ft | 19 kts | 297° |
| 2026-04-14 07:02 | -27.37747 | 153.12322 | 20 ft | 19 kts | 297° |
| 2026-04-14 07:03 | -27.37684 | 153.12185 | 20 ft | 20 kts | 297° |
| 2026-04-14 07:03 | -27.37641 | 153.12089 | 20 ft | 21 kts | 297° |
| 2026-04-14 07:03 | -27.37547 | 153.11883 | 20 ft | 22 kts | 297° |
| 2026-04-14 07:03 | -27.37501 | 153.11781 | 22 ft | 23 kts | 297° |
| 2026-04-14 07:04 | -27.37430 | 153.11625 | 20 ft | 22 kts | 297° |
| 2026-04-14 07:04 | -27.37439 | 153.11501 | 21 ft | 17 kts | 213° |
| 2026-04-14 07:04 | -27.37546 | 153.11443 | 20 ft | 17 kts | 207° |
| 2026-04-14 07:04 | -27.37676 | 153.11368 | 20 ft | 16 kts | 207° |
| 2026-04-14 07:05 | -27.37742 | 153.11330 | 21 ft | 16 kts | 207° |
| 2026-04-14 07:05 | -27.37836 | 153.11277 | 20 ft | 15 kts | 207° |
| 2026-04-14 07:05 | -27.37882 | 153.11191 | 20 ft | 14 kts | 290° |
| 2026-04-14 07:05 | -27.37838 | 153.11093 | 21 ft | 14 kts | 297° |
| 2026-04-14 07:06 | -27.37793 | 153.11002 | 20 ft | 13 kts | 313° |
| 2026-04-14 07:06 | -27.37714 | 153.11020 | 19 ft | 11 kts | 27° |
| 2026-04-14 07:06 | -27.37630 | 153.11068 | 19 ft | 24 kts | 27° |
| 2026-04-14 07:06 | -27.37284 | 153.11266 | 20 ft | 86 kts | 26° |
| 2026-04-14 07:07 | -27.36587 | 153.11663 | 21 ft | 136 kts | 27° |
| 2026-04-14 07:07 | -27.35676 | 153.12188 | 300 ft | 150 kts | 30° |
| 2026-04-14 07:07 | -27.34745 | 153.12715 | 877 ft | 151 kts | 29° |
| 2026-04-14 07:07 | -27.33758 | 153.13288 | 1248 ft | 167 kts | 32° |
| 2026-04-14 07:08 | -27.32643 | 153.13953 | 1536 ft | 198 kts | 30° |
| 2026-04-14 07:08 | -27.31328 | 153.14701 | 1800 ft | 224 kts | 30° |
| 2026-04-14 07:08 | -27.29891 | 153.15513 | 2273 ft | 239 kts | 28° |
| 2026-04-14 07:08 | -27.28326 | 153.16399 | 2661 ft | 260 kts | 28° |
| 2026-04-14 07:09 | -27.26707 | 153.17315 | 3559 ft | 262 kts | 27° |
| 2026-04-14 07:09 | -27.25057 | 153.18252 | 4319 ft | 270 kts | 26° |
| 2026-04-14 07:09 | -27.23360 | 153.19217 | 5130 ft | 275 kts | 26° |
| 2026-04-14 07:09 | -27.21630 | 153.20201 | 5851 ft | 284 kts | 26° |
| 2026-04-14 07:10 | -27.19863 | 153.21207 | 6710 ft | 285 kts | 26° |
| 2026-04-14 07:10 | -27.18000 | 153.21980 | 7427 ft | 288 kts | 7° |
| 2026-04-14 07:10 | -27.16025 | 153.22225 | 8219 ft | 291 kts | 5° |
| 2026-04-14 07:10 | -27.13982 | 153.22451 | 8881 ft | 298 kts | 5° |
| 2026-04-14 07:11 | -27.11912 | 153.22694 | 9694 ft | 301 kts | 6° |
| 2026-04-14 07:11 | -27.09808 | 153.22957 | 10383 ft | 306 kts | 6° |
| 2026-04-14 07:11 | -27.07621 | 153.23239 | 10670 ft | 328 kts | 6° |
| 2026-04-14 07:11 | -27.05282 | 153.23547 | 10845 ft | 350 kts | 6° |
| 2026-04-14 07:12 | -27.02797 | 153.23873 | 11135 ft | 366 kts | 5° |
| 2026-04-14 07:12 | -27.00234 | 153.24061 | 11683 ft | 372 kts | 0° |
| 2026-04-14 07:12 | -26.97638 | 153.24113 | 12349 ft | 374 kts | 359° |
| 2026-04-14 07:12 | -26.95031 | 153.24130 | 13014 ft | 377 kts | 359° |
| 2026-04-14 07:13 | -26.92422 | 153.24150 | 13642 ft | 380 kts | 359° |
| 2026-04-14 07:13 | -26.89763 | 153.24182 | 14218 ft | 384 kts | 359° |
| 2026-04-14 07:13 | -26.87073 | 153.24226 | 14767 ft | 388 kts | 358° |
| 2026-04-14 07:13 | -26.84365 | 153.24278 | 15319 ft | 391 kts | 358° |
| 2026-04-14 07:14 | -26.81632 | 153.24336 | 15847 ft | 395 kts | 358° |
| 2026-04-14 07:14 | -26.78866 | 153.24393 | 16380 ft | 398 kts | 358° |
| 2026-04-14 07:14 | -26.76084 | 153.24452 | 16913 ft | 401 kts | 357° |
| 2026-04-14 07:14 | -26.73283 | 153.24511 | 17434 ft | 405 kts | 357° |
| 2026-04-14 07:15 | -26.70455 | 153.24569 | 17968 ft | 407 kts | 356° |
| 2026-04-14 07:15 | -26.67654 | 153.24260 | 18429 ft | 402 kts | 339° |
| 2026-04-14 07:15 | -26.64989 | 153.23320 | 18885 ft | 403 kts | 337° |
| 2026-04-14 07:15 | -26.62317 | 153.22343 | 19336 ft | 405 kts | 337° |
| 2026-04-14 07:16 | -26.59667 | 153.21384 | 19806 ft | 407 kts | 337° |
| 2026-04-14 07:16 | -26.56963 | 153.20423 | 20256 ft | 409 kts | 337° |
| 2026-04-14 07:16 | -26.54238 | 153.19469 | 20739 ft | 410 kts | 337° |
| 2026-04-14 07:16 | -26.51507 | 153.18522 | 21217 ft | 412 kts | 337° |
| 2026-04-14 07:17 | -26.48755 | 153.17572 | 21612 ft | 415 kts | 337° |
| 2026-04-14 07:17 | -26.45981 | 153.16616 | 22028 ft | 418 kts | 337° |
| 2026-04-14 07:17 | -26.43193 | 153.15657 | 22463 ft | 421 kts | 337° |
| 2026-04-14 07:17 | -26.40393 | 153.14694 | 22912 ft | 422 kts | 337° |
| 2026-04-14 07:18 | -26.37579 | 153.13726 | 23330 ft | 424 kts | 337° |
| 2026-04-14 07:18 | -26.34746 | 153.12752 | 23717 ft | 427 kts | 337° |
| 2026-04-14 07:18 | -26.31897 | 153.11771 | 24032 ft | 429 kts | 337° |
| 2026-04-14 07:18 | -26.29069 | 153.10722 | 24413 ft | 426 kts | 332° |
| 2026-04-14 07:19 | -26.26442 | 153.09263 | 24809 ft | 418 kts | 322° |
| 2026-04-14 07:19 | -26.24100 | 153.07406 | 25253 ft | 411 kts | 317° |
| 2026-04-14 07:19 | -26.21812 | 153.05485 | 25638 ft | 411 kts | 317° |
| 2026-04-14 07:19 | -26.19520 | 153.03569 | 25942 ft | 413 kts | 317° |
| 2026-04-14 07:20 | -26.17207 | 153.01655 | 26223 ft | 415 kts | 318° |
| 2026-04-14 07:20 | -26.14877 | 152.99744 | 26512 ft | 417 kts | 318° |
| 2026-04-14 07:20 | -26.12568 | 152.97860 | 26814 ft | 418 kts | 318° |
| 2026-04-14 07:20 | -26.10220 | 152.95947 | 27084 ft | 419 kts | 318° |
| 2026-04-14 07:21 | -26.07855 | 152.94038 | 27359 ft | 420 kts | 318° |
| 2026-04-14 07:21 | -26.05480 | 152.92132 | 27631 ft | 421 kts | 318° |
| 2026-04-14 07:21 | -26.03098 | 152.90224 | 27902 ft | 422 kts | 318° |
| 2026-04-14 07:21 | -26.00713 | 152.88315 | 28169 ft | 423 kts | 318° |
| 2026-04-14 07:22 | -25.98321 | 152.86399 | 28409 ft | 424 kts | 318° |
| 2026-04-14 07:22 | -25.95928 | 152.84483 | 28733 ft | 423 kts | 318° |
| 2026-04-14 07:22 | -25.93546 | 152.82577 | 29152 ft | 420 kts | 318° |
| 2026-04-14 07:22 | -25.91180 | 152.80684 | 29454 ft | 419 kts | 318° |
| 2026-04-14 07:23 | -25.88807 | 152.78784 | 29718 ft | 420 kts | 318° |
| 2026-04-14 07:23 | -25.86439 | 152.76888 | 30067 ft | 418 kts | 318° |
| 2026-04-14 07:23 | -25.84082 | 152.75004 | 30407 ft | 416 kts | 318° |
| 2026-04-14 07:23 | -25.81768 | 152.73155 | 30716 ft | 414 kts | 318° |
| 2026-04-14 07:24 | -25.79398 | 152.71261 | 30980 ft | 414 kts | 318° |
| 2026-04-14 07:24 | -25.77093 | 152.69420 | 31241 ft | 413 kts | 318° |
| 2026-04-14 07:24 | -25.74762 | 152.67559 | 31543 ft | 412 kts | 318° |
| 2026-04-14 07:24 | -25.72439 | 152.65706 | 31837 ft | 411 kts | 318° |
| 2026-04-14 07:25 | -25.70120 | 152.63857 | 32125 ft | 410 kts | 318° |
| 2026-04-14 07:25 | -25.67807 | 152.62013 | 32401 ft | 409 kts | 317° |
| 2026-04-14 07:25 | -25.65499 | 152.60173 | 32690 ft | 408 kts | 317° |
| 2026-04-14 07:25 | -25.63198 | 152.58341 | 32994 ft | 407 kts | 317° |
| 2026-04-14 07:26 | -25.60899 | 152.56512 | 33318 ft | 405 kts | 317° |
| 2026-04-14 07:26 | -25.58615 | 152.54694 | 33564 ft | 405 kts | 318° |
| 2026-04-14 07:26 | -25.56322 | 152.52870 | 33799 ft | 405 kts | 318° |
| 2026-04-14 07:26 | -25.54033 | 152.51050 | 34078 ft | 403 kts | 318° |
| 2026-04-14 07:27 | -25.51751 | 152.49237 | 34092 ft | 406 kts | 318° |
| 2026-04-14 07:27 | -25.47167 | 152.45598 | 34114 ft | 405 kts | 318° |
| 2026-04-14 07:28 | -25.42631 | 152.42002 | 34118 ft | 403 kts | 318° |
| 2026-04-14 07:28 | -25.38078 | 152.38394 | 34115 ft | 402 kts | 318° |
| 2026-04-14 07:29 | -25.33538 | 152.34800 | 34114 ft | 401 kts | 318° |
| 2026-04-14 07:29 | -25.28999 | 152.31231 | 34110 ft | 400 kts | 318° |
| 2026-04-14 07:30 | -25.24479 | 152.27641 | 34101 ft | 400 kts | 318° |
| 2026-04-14 07:30 | -25.19944 | 152.24056 | 34117 ft | 401 kts | 318° |
| 2026-04-14 07:31 | -25.15423 | 152.20489 | 34112 ft | 403 kts | 318° |
| 2026-04-14 07:31 | -25.10848 | 152.16885 | 34108 ft | 405 kts | 319° |
| 2026-04-14 07:32 | -25.06227 | 152.13247 | 34111 ft | 406 kts | 319° |
| 2026-04-14 07:32 | -25.01648 | 152.09648 | 34108 ft | 407 kts | 319° |
| 2026-04-14 07:33 | -24.97026 | 152.06028 | 34103 ft | 407 kts | 319° |
| 2026-04-14 07:33 | -24.92400 | 152.02410 | 34108 ft | 408 kts | 319° |
| 2026-04-14 07:34 | -24.83150 | 151.95180 | 34106 ft | 407 kts | 319° |
| 2026-04-14 07:35 | -24.78557 | 151.91594 | 34098 ft | 407 kts | 319° |
| 2026-04-14 07:35 | -24.73943 | 151.87992 | 34109 ft | 406 kts | 319° |
| 2026-04-14 07:36 | -24.69331 | 151.84399 | 34104 ft | 406 kts | 319° |
| 2026-04-14 07:36 | -24.64725 | 151.80815 | 34107 ft | 405 kts | 319° |
| 2026-04-14 07:37 | -24.60127 | 151.77238 | 34089 ft | 405 kts | 319° |
| 2026-04-14 07:37 | -24.55526 | 151.73662 | 34104 ft | 405 kts | 319° |
| 2026-04-14 07:38 | -24.50924 | 151.70089 | 34101 ft | 405 kts | 319° |
| 2026-04-14 07:38 | -24.46347 | 151.66539 | 34102 ft | 405 kts | 319° |
| 2026-04-14 07:39 | -24.41743 | 151.62970 | 34099 ft | 405 kts | 319° |
| 2026-04-14 07:39 | -24.37133 | 151.59401 | 34099 ft | 406 kts | 319° |
| 2026-04-14 07:40 | -24.32515 | 151.55828 | 34098 ft | 406 kts | 319° |
| 2026-04-14 07:40 | -24.27896 | 151.52258 | 34080 ft | 406 kts | 320° |
| 2026-04-14 07:41 | -24.23271 | 151.48685 | 34096 ft | 407 kts | 320° |
| 2026-04-14 07:41 | -24.18644 | 151.45116 | 34094 ft | 407 kts | 320° |
| 2026-04-14 07:42 | -24.14025 | 151.41566 | 34084 ft | 409 kts | 320° |
| 2026-04-14 07:42 | -24.09370 | 151.37974 | 34098 ft | 409 kts | 320° |
| 2026-04-14 07:43 | -24.04713 | 151.34387 | 34091 ft | 410 kts | 320° |
| 2026-04-14 07:43 | -24.00047 | 151.30799 | 34094 ft | 409 kts | 320° |
| 2026-04-14 07:44 | -23.95382 | 151.27217 | 34079 ft | 409 kts | 320° |
| 2026-04-14 07:44 | -23.90721 | 151.23638 | 34081 ft | 409 kts | 320° |
| 2026-04-14 07:45 | -23.86038 | 151.20079 | 34096 ft | 411 kts | 322° |
| 2026-04-14 07:45 | -23.81149 | 151.16879 | 34107 ft | 412 kts | 324° |
| 2026-04-14 07:46 | -23.76185 | 151.13734 | 34096 ft | 413 kts | 324° |
| 2026-04-14 07:46 | -23.71224 | 151.10580 | 34099 ft | 412 kts | 324° |
| 2026-04-14 07:47 | -23.66270 | 151.07412 | 34098 ft | 412 kts | 324° |
| 2026-04-14 07:47 | -23.61324 | 151.04243 | 34085 ft | 412 kts | 324° |
| 2026-04-14 07:48 | -23.56373 | 151.01073 | 34076 ft | 412 kts | 324° |
| 2026-04-14 07:48 | -23.51420 | 150.97903 | 34072 ft | 413 kts | 324° |
| 2026-04-14 07:49 | -23.46466 | 150.94736 | 34078 ft | 413 kts | 324° |
| 2026-04-14 07:49 | -23.41511 | 150.91571 | 34082 ft | 413 kts | 324° |
| 2026-04-14 07:50 | -23.36580 | 150.88425 | 34077 ft | 413 kts | 324° |
| 2026-04-14 07:50 | -23.31615 | 150.85260 | 34069 ft | 413 kts | 324° |
| 2026-04-14 07:51 | -23.26652 | 150.82098 | 34060 ft | 413 kts | 324° |
| 2026-04-14 07:51 | -23.21694 | 150.78927 | 34069 ft | 413 kts | 324° |
| 2026-04-14 07:52 | -23.16725 | 150.75772 | 34074 ft | 414 kts | 325° |
| 2026-04-14 07:52 | -23.11750 | 150.72624 | 34071 ft | 414 kts | 325° |
| 2026-04-14 07:53 | -23.06776 | 150.69466 | 34076 ft | 414 kts | 325° |
| 2026-04-14 07:53 | -23.01826 | 150.66326 | 34061 ft | 415 kts | 325° |
| 2026-04-14 07:54 | -22.96840 | 150.63167 | 34055 ft | 415 kts | 325° |
| 2026-04-14 07:54 | -22.92662 | 150.60521 | 34056 ft | 415 kts | 325° |
| 2026-04-14 07:55 | -22.87708 | 150.57387 | 34062 ft | 415 kts | 326° |
| 2026-04-14 07:55 | -22.82723 | 150.54237 | 34061 ft | 416 kts | 325° |
| 2026-04-14 07:56 | -22.77726 | 150.51080 | 34063 ft | 416 kts | 325° |
| 2026-04-14 07:56 | -22.72725 | 150.47925 | 34058 ft | 416 kts | 325° |
| 2026-04-14 07:57 | -22.67725 | 150.44772 | 34061 ft | 415 kts | 325° |
| 2026-04-14 07:57 | -22.62731 | 150.41624 | 34056 ft | 415 kts | 326° |
| 2026-04-14 07:58 | -22.57733 | 150.38479 | 34057 ft | 415 kts | 326° |
| 2026-04-14 07:58 | -22.52747 | 150.35343 | 34054 ft | 414 kts | 326° |
| 2026-04-14 07:59 | -22.47751 | 150.32202 | 33696 ft | 420 kts | 326° |
| 2026-04-14 07:59 | -22.45232 | 150.30620 | 33176 ft | 418 kts | 326° |
| 2026-04-14 07:59 | -22.42714 | 150.29039 | 32588 ft | 418 kts | 326° |
| 2026-04-14 07:59 | -22.40197 | 150.27460 | 31972 ft | 419 kts | 326° |
| 2026-04-14 08:00 | -22.37675 | 150.25878 | 31339 ft | 420 kts | 327° |
| 2026-04-14 08:00 | -22.35149 | 150.24294 | 30840 ft | 418 kts | 327° |
| 2026-04-14 08:00 | -22.32670 | 150.22740 | 30341 ft | 417 kts | 327° |
| 2026-04-14 08:00 | -22.30170 | 150.21175 | 29830 ft | 415 kts | 327° |
| 2026-04-14 08:01 | -22.27684 | 150.19614 | 29323 ft | 411 kts | 326° |
| 2026-04-14 08:01 | -22.25357 | 150.17856 | 28815 ft | 405 kts | 317° |
| 2026-04-14 08:01 | -22.23236 | 150.15879 | 28355 ft | 401 kts | 317° |
| 2026-04-14 08:01 | -22.21143 | 150.13906 | 27889 ft | 398 kts | 317° |
| 2026-04-14 08:02 | -22.19065 | 150.11951 | 27433 ft | 395 kts | 317° |
| 2026-04-14 08:02 | -22.16995 | 150.10014 | 26981 ft | 392 kts | 317° |
| 2026-04-14 08:02 | -22.14938 | 150.08099 | 26540 ft | 390 kts | 317° |
| 2026-04-14 08:02 | -22.12887 | 150.06195 | 26094 ft | 388 kts | 317° |
| 2026-04-14 08:03 | -22.10846 | 150.04304 | 25651 ft | 386 kts | 317° |
| 2026-04-14 08:03 | -22.08813 | 150.02419 | 25198 ft | 385 kts | 317° |
| 2026-04-14 08:03 | -22.06785 | 150.00544 | 24753 ft | 383 kts | 317° |
| 2026-04-14 08:03 | -22.04763 | 149.98673 | 24304 ft | 383 kts | 317° |
| 2026-04-14 08:04 | -22.02772 | 149.96833 | 23871 ft | 382 kts | 317° |
| 2026-04-14 08:04 | -22.00755 | 149.94969 | 23389 ft | 381 kts | 317° |
| 2026-04-14 08:04 | -21.98747 | 149.93118 | 22907 ft | 379 kts | 317° |
| 2026-04-14 08:04 | -21.96748 | 149.91279 | 22453 ft | 377 kts | 317° |
| 2026-04-14 08:05 | -21.94761 | 149.89452 | 22018 ft | 374 kts | 317° |
| 2026-04-14 08:05 | -21.92786 | 149.87636 | 21591 ft | 371 kts | 318° |
| 2026-04-14 08:05 | -21.90829 | 149.85837 | 21175 ft | 369 kts | 318° |
| 2026-04-14 08:05 | -21.88885 | 149.84051 | 20763 ft | 367 kts | 318° |
| 2026-04-14 08:06 | -21.86951 | 149.82273 | 20356 ft | 364 kts | 318° |
| 2026-04-14 08:06 | -21.85030 | 149.80508 | 19953 ft | 362 kts | 318° |
| 2026-04-14 08:06 | -21.83117 | 149.78751 | 19553 ft | 360 kts | 318° |
| 2026-04-14 08:06 | -21.81211 | 149.77001 | 19150 ft | 358 kts | 318° |
| 2026-04-14 08:07 | -21.79323 | 149.75268 | 18750 ft | 357 kts | 318° |
| 2026-04-14 08:07 | -21.77440 | 149.73540 | 18342 ft | 355 kts | 318° |
| 2026-04-14 08:07 | -21.75561 | 149.71817 | 17891 ft | 353 kts | 318° |
| 2026-04-14 08:07 | -21.73696 | 149.70108 | 17465 ft | 351 kts | 318° |
| 2026-04-14 08:08 | -21.71844 | 149.68410 | 17061 ft | 349 kts | 318° |
| 2026-04-14 08:08 | -21.69999 | 149.66719 | 16660 ft | 346 kts | 318° |
| 2026-04-14 08:08 | -21.68172 | 149.65045 | 16271 ft | 344 kts | 318° |
| 2026-04-14 08:08 | -21.66383 | 149.63408 | 15889 ft | 342 kts | 318° |
| 2026-04-14 08:09 | -21.64576 | 149.61753 | 15510 ft | 340 kts | 317° |
| 2026-04-14 08:09 | -21.62768 | 149.60124 | 15128 ft | 339 kts | 321° |
| 2026-04-14 08:09 | -21.60850 | 149.58653 | 14752 ft | 338 kts | 324° |
| 2026-04-14 08:09 | -21.58883 | 149.57269 | 14375 ft | 337 kts | 326° |
| 2026-04-14 08:10 | -21.56912 | 149.55908 | 13981 ft | 337 kts | 326° |
| 2026-04-14 08:10 | -21.54943 | 149.54545 | 13574 ft | 337 kts | 326° |
| 2026-04-14 08:10 | -21.52982 | 149.53175 | 13170 ft | 335 kts | 326° |
| 2026-04-14 08:10 | -21.51034 | 149.51805 | 12783 ft | 333 kts | 326° |
| 2026-04-14 08:11 | -21.49104 | 149.50441 | 12409 ft | 332 kts | 326° |
| 2026-04-14 08:11 | -21.47185 | 149.49081 | 12041 ft | 330 kts | 326° |
| 2026-04-14 08:11 | -21.45276 | 149.47726 | 11673 ft | 328 kts | 326° |
| 2026-04-14 08:11 | -21.43382 | 149.46382 | 11306 ft | 326 kts | 326° |
| 2026-04-14 08:12 | -21.41496 | 149.45043 | 10948 ft | 324 kts | 326° |
| 2026-04-14 08:12 | -21.39619 | 149.43711 | 10592 ft | 322 kts | 326° |
| 2026-04-14 08:12 | -21.37779 | 149.42405 | 10450 ft | 313 kts | 326° |
| 2026-04-14 08:12 | -21.35986 | 149.41132 | 10306 ft | 304 kts | 326° |
| 2026-04-14 08:13 | -21.34242 | 149.39896 | 10184 ft | 296 kts | 326° |
| 2026-04-14 08:13 | -21.32547 | 149.38695 | 10041 ft | 288 kts | 326° |
| 2026-04-14 08:13 | -21.30906 | 149.37535 | 9751 ft | 286 kts | 327° |
| 2026-04-14 08:13 | -21.29141 | 149.36585 | 9522 ft | 281 kts | 339° |
| 2026-04-14 08:14 | -21.27303 | 149.35887 | 9231 ft | 280 kts | 342° |
| 2026-04-14 08:14 | -21.25464 | 149.35229 | 8942 ft | 278 kts | 342° |
| 2026-04-14 08:14 | -21.23635 | 149.34567 | 8652 ft | 277 kts | 341° |
| 2026-04-14 08:14 | -21.21815 | 149.33895 | 8363 ft | 276 kts | 341° |
| 2026-04-14 08:15 | -21.20010 | 149.33216 | 8075 ft | 275 kts | 341° |
| 2026-04-14 08:15 | -21.18211 | 149.32533 | 7788 ft | 274 kts | 341° |
| 2026-04-14 08:15 | -21.16417 | 149.31847 | 7503 ft | 273 kts | 342° |
| 2026-04-14 08:15 | -21.14625 | 149.31160 | 7216 ft | 273 kts | 342° |
| 2026-04-14 08:16 | -21.12841 | 149.30476 | 6933 ft | 272 kts | 342° |
| 2026-04-14 08:16 | -21.11083 | 149.29733 | 6633 ft | 273 kts | 331° |
| 2026-04-14 08:16 | -21.09659 | 149.28386 | 6363 ft | 274 kts | 314° |
| 2026-04-14 08:16 | -21.08367 | 149.26881 | 6033 ft | 275 kts | 314° |
| 2026-04-14 08:17 | -21.07093 | 149.25399 | 5770 ft | 274 kts | 314° |
| 2026-04-14 08:17 | -21.05795 | 149.23901 | 5512 ft | 273 kts | 314° |
| 2026-04-14 08:17 | -21.04518 | 149.22433 | 5385 ft | 266 kts | 315° |
| 2026-04-14 08:17 | -21.03268 | 149.21003 | 5265 ft | 260 kts | 315° |
| 2026-04-14 08:18 | -21.02046 | 149.19608 | 5132 ft | 253 kts | 315° |
| 2026-04-14 08:18 | -21.00859 | 149.18255 | 5037 ft | 246 kts | 315° |
| 2026-04-14 08:18 | -20.99706 | 149.16941 | 4923 ft | 239 kts | 316° |
| 2026-04-14 08:18 | -20.98724 | 149.15525 | 4782 ft | 238 kts | 291° |
| 2026-04-14 08:19 | -20.98583 | 149.13803 | 4495 ft | 232 kts | 255° |
| 2026-04-14 08:19 | -20.99196 | 149.12238 | 4204 ft | 225 kts | 237° |
| 2026-04-14 08:19 | -21.00020 | 149.10827 | 3888 ft | 223 kts | 234° |
| 2026-04-14 08:19 | -21.00990 | 149.09557 | 3568 ft | 217 kts | 210° |
| 2026-04-14 08:20 | -21.02350 | 149.09054 | 3294 ft | 203 kts | 177° |
| 2026-04-14 08:20 | -21.03692 | 149.09298 | 3035 ft | 192 kts | 154° |
| 2026-04-14 08:20 | -21.04821 | 149.09979 | 2740 ft | 183 kts | 145° |
| 2026-04-14 08:20 | -21.05877 | 149.10695 | 2469 ft | 176 kts | 145° |
| 2026-04-14 08:21 | -21.06893 | 149.11387 | 2247 ft | 173 kts | 146° |
| 2026-04-14 08:21 | -21.07886 | 149.12056 | 2025 ft | 163 kts | 146° |
| 2026-04-14 08:21 | -21.08823 | 149.12688 | 1791 ft | 157 kts | 146° |
| 2026-04-14 08:21 | -21.09718 | 149.13292 | 1581 ft | 148 kts | 145° |
| 2026-04-14 08:22 | -21.10558 | 149.13858 | 1424 ft | 141 kts | 146° |
| 2026-04-14 08:22 | -21.11403 | 149.14429 | 1220 ft | 144 kts | 144° |
| 2026-04-14 08:22 | -21.12247 | 149.14998 | 1014 ft | 142 kts | 144° |
| 2026-04-14 08:22 | -21.13078 | 149.15557 | 814 ft | 140 kts | 143° |
| 2026-04-14 08:23 | -21.13893 | 149.16109 | 626 ft | 139 kts | 145° |
| 2026-04-14 08:23 | -21.14704 | 149.16655 | 440 ft | 140 kts | 144° |
| 2026-04-14 08:23 | -21.15538 | 149.17222 | 251 ft | 141 kts | 147° |
| 2026-04-14 08:23 | -21.16363 | 149.17777 | 57 ft | 137 kts | 147° |
| 2026-04-14 08:24 | -21.17093 | 149.18268 | 26 ft | 99 kts | 148° |
| 2026-04-14 08:24 | -21.17492 | 149.18538 | 24 ft | 39 kts | 148° |
| 2026-04-14 08:24 | -21.17658 | 149.18650 | 23 ft | 27 kts | 147° |
| 2026-04-14 08:24 | -21.17758 | 149.18721 | 23 ft | 12 kts | 135° |
| 2026-04-14 08:25 | -21.17811 | 149.18766 | 26 ft | 12 kts | 223° |
| 2026-04-14 08:25 | -21.17787 | 149.18731 | 24 ft | 6 kts | 330° |
| 2026-04-14 08:25 | -21.17747 | 149.18706 | 24 ft | 8 kts | 330° |
| 2026-04-14 08:25 | -21.17688 | 149.18669 | 24 ft | 12 kts | 328° |
| 2026-04-14 08:26 | -21.17606 | 149.18614 | 24 ft | 16 kts | 328° |
| 2026-04-14 08:26 | -21.17508 | 149.18543 | 26 ft | 15 kts | 309° |
| 2026-04-14 08:26 | -21.17537 | 149.18445 | 22 ft | 15 kts | 237° |
| 2026-04-14 08:26 | -21.17590 | 149.18357 | 23 ft | 9 kts | 239° |
| 2026-04-14 08:27 | -21.17584 | 149.18310 | 26 ft | 3 kts | 291° |
| 2026-04-14 08:27 | -21.17580 | 149.18285 | 26 ft | 3 kts | 279° |
| 2026-04-14 08:27 | -21.17574 | 149.18261 | 26 ft | 3 kts | 287° |
| 2026-04-14 08:27 | -21.17571 | 149.18249 | 26 ft | 0 kts | 288° |